createdAt,value
2018-01-05T00:00:45.341Z,98252
2018-01-05T00:01:46.235Z,98246
2018-01-05T00:02:45.276Z,98259
2018-01-05T00:03:45.315Z,98250
2018-01-05T00:04:45.344Z,98255
2018-01-05T00:05:45.467Z,98261
2018-01-05T00:06:45.454Z,98255
2018-01-05T00:07:45.446Z,98259
2018-01-05T00:08:45.534Z,98266
2018-01-05T00:09:45.604Z,98274
2018-01-05T00:10:45.617Z,98259
2018-01-05T00:11:45.644Z,98256
2018-01-05T00:12:46.790Z,98247
2018-01-05T00:13:45.823Z,98262
2018-01-05T00:14:45.742Z,98253
2018-01-05T00:15:45.718Z,98255
2018-01-05T00:16:45.784Z,98257
2018-01-05T00:17:46.724Z,98255
2018-01-05T00:18:46.914Z,98240
2018-01-05T00:19:46.176Z,98254
2018-01-05T00:20:45.941Z,98253
2018-01-05T00:21:45.978Z,98251
2018-01-05T00:22:46.987Z,98252
2018-01-05T00:23:46.200Z,98250
2018-01-05T00:24:47.112Z,98258
2018-01-05T00:25:46.156Z,98257
2018-01-05T00:26:47.176Z,98266
2018-01-05T00:27:46.370Z,98264
2018-01-05T00:28:47.378Z,98265
2018-01-05T00:29:47.289Z,98268
2018-01-05T00:30:46.331Z,98269
2018-01-05T00:31:46.345Z,98278
2018-01-05T00:32:46.468Z,98265
2018-01-05T00:33:47.410Z,98280
2018-01-05T00:34:47.546Z,98276
2018-01-05T00:35:46.533Z,98279
2018-01-05T00:36:47.620Z,98275
2018-01-05T00:37:46.598Z,98274
2018-01-05T00:38:46.655Z,98284
2018-01-05T00:39:46.677Z,98279
2018-01-05T00:40:47.852Z,98274
2018-01-05T00:41:46.948Z,98275
2018-01-05T00:42:47.931Z,98279
2018-01-05T00:43:46.894Z,98267
2018-01-05T00:44:46.964Z,98278
2018-01-05T00:45:46.992Z,98283
2018-01-05T00:46:48.140Z,98283
2018-01-05T00:47:48.149Z,98297
2018-01-05T00:48:47.190Z,98291
2018-01-05T00:49:47.336Z,98292
2018-01-05T00:50:48.227Z,98298
2018-01-05T00:51:47.413Z,98286
2018-01-05T00:52:48.405Z,98302
2018-01-05T00:53:47.549Z,98299
2018-01-05T00:54:47.567Z,98300
2018-01-05T00:55:48.603Z,98300
2018-01-05T00:56:48.696Z,98290
2018-01-05T00:57:47.696Z,98299
2018-01-05T00:58:47.748Z,98269
2018-01-05T00:59:47.858Z,98292
2018-01-05T01:00:47.878Z,98296
2018-01-05T01:01:47.967Z,98298
2018-01-05T01:02:48.954Z,98284
2018-01-05T01:03:49.067Z,98290
2018-01-05T01:04:48.122Z,98304
2018-01-05T01:05:48.142Z,98302
2018-01-05T01:06:49.026Z,98298
2018-01-05T01:07:48.131Z,98311
2018-01-05T01:08:48.209Z,98317
2018-01-05T01:09:48.355Z,98321
2018-01-05T01:10:49.406Z,98316
2018-01-05T01:11:49.428Z,98313
2018-01-05T01:12:48.422Z,98320
2018-01-05T01:13:48.539Z,98322
2018-01-05T01:14:48.546Z,98315
2018-01-05T01:15:48.811Z,98333
2018-01-05T01:16:48.610Z,98339
2018-01-05T01:17:48.680Z,98342
2018-01-05T01:18:48.567Z,98344
2018-01-05T01:19:48.631Z,98344
2018-01-05T01:20:48.641Z,98337
2018-01-05T01:21:48.679Z,98329
2018-01-05T01:22:48.771Z,98342
2018-01-05T01:23:49.747Z,98340
2018-01-05T01:24:49.805Z,98338
2018-01-05T01:25:48.875Z,98339
2018-01-05T01:26:48.899Z,98332
2018-01-05T01:27:49.101Z,98332
2018-01-05T01:28:50.059Z,98316
2018-01-05T01:29:49.064Z,98335
2018-01-05T01:30:49.263Z,98316
2018-01-05T01:31:49.161Z,98311
2018-01-05T01:32:49.237Z,98318
2018-01-05T01:33:49.444Z,98324
2018-01-05T01:34:49.371Z,98311
2018-01-05T01:35:50.406Z,98313
2018-01-05T01:36:49.552Z,98320
2018-01-05T01:37:49.656Z,98315
2018-01-05T01:38:49.674Z,98302
2018-01-05T01:39:50.708Z,98309
2018-01-05T01:40:50.665Z,98307
2018-01-05T01:41:50.706Z,98312
2018-01-05T01:42:49.951Z,98304
2018-01-05T01:43:50.925Z,98298
2018-01-05T01:44:50.942Z,98302
2018-01-05T01:45:50.136Z,98292
2018-01-05T01:46:50.100Z,98300
2018-01-05T01:47:50.119Z,98289
2018-01-05T01:48:50.238Z,98290
2018-01-05T01:49:50.175Z,98289
2018-01-05T01:50:50.351Z,98284
2018-01-05T01:51:50.407Z,98289
2018-01-05T01:52:51.410Z,98291
2018-01-05T01:53:50.366Z,98288
2018-01-05T01:54:50.504Z,98274
2018-01-05T01:55:50.579Z,98292
2018-01-05T01:56:50.578Z,98289
2018-01-05T01:57:50.672Z,98293
2018-01-05T01:58:50.624Z,98297
2018-01-05T01:59:50.801Z,98304
2018-01-05T02:00:50.708Z,98299
2018-01-05T02:01:50.801Z,98304
2018-01-05T02:02:51.926Z,98294
2018-01-05T02:03:51.967Z,98302
2018-01-05T02:04:52.025Z,98293
2018-01-05T02:05:51.006Z,98288
2018-01-05T02:06:52.149Z,98275
2018-01-05T02:07:51.133Z,98285
2018-01-05T02:08:51.208Z,98294
2018-01-05T02:09:52.318Z,98278
2018-01-05T02:10:51.388Z,98289
2018-01-05T02:11:52.443Z,98290
2018-01-05T02:12:51.520Z,98289
2018-01-05T02:13:51.441Z,98282
2018-01-05T02:14:52.550Z,98275
2018-01-05T02:15:52.468Z,98287
2018-01-05T02:16:51.626Z,98286
2018-01-05T02:17:52.658Z,98281
2018-01-05T02:18:52.752Z,98281
2018-01-05T02:19:51.694Z,98268
2018-01-05T02:20:51.906Z,98269
2018-01-05T02:21:52.960Z,98280
2018-01-05T02:22:51.987Z,98276
2018-01-05T02:23:52.982Z,98261
2018-01-05T02:24:52.088Z,98262
2018-01-05T02:25:52.018Z,98268
2018-01-05T02:26:52.179Z,98262
2018-01-05T02:27:53.275Z,98250
2018-01-05T02:28:52.227Z,98256
2018-01-05T02:29:53.366Z,98261
2018-01-05T02:30:52.451Z,98262
2018-01-05T02:31:52.374Z,98266
2018-01-05T02:32:52.432Z,98270
2018-01-05T02:33:52.513Z,98265
2018-01-05T02:34:52.544Z,98256
2018-01-05T02:35:53.719Z,98255
2018-01-05T02:36:52.755Z,98261
2018-01-05T02:37:52.724Z,98256
2018-01-05T02:38:53.764Z,98260
2018-01-05T02:39:52.949Z,98255
2018-01-05T02:40:52.986Z,98258
2018-01-05T02:41:52.884Z,98250
2018-01-05T02:42:53.050Z,98251
2018-01-05T02:43:53.018Z,98248
2018-01-05T02:44:54.010Z,98250
2018-01-05T02:45:53.107Z,98235
2018-01-05T02:46:54.110Z,98251
2018-01-05T02:47:53.154Z,98251
2018-01-05T02:48:53.341Z,98246
2018-01-05T02:49:53.329Z,98242
2018-01-05T02:50:53.334Z,98249
2018-01-05T02:51:54.512Z,98231
2018-01-05T02:52:54.538Z,98227
2018-01-05T02:53:54.575Z,98229
2018-01-05T02:54:53.592Z,98237
2018-01-05T02:55:53.692Z,98231
2018-01-05T02:56:53.667Z,98222
2018-01-05T02:57:54.717Z,98222
2018-01-05T02:58:53.796Z,98224
2018-01-05T02:59:53.852Z,98228
2018-01-05T03:00:53.929Z,98237
2018-01-05T03:01:54.019Z,98240
2018-01-05T03:02:55.126Z,98229
2018-01-05T03:03:54.085Z,98239
2018-01-05T03:04:54.200Z,98224
2018-01-05T03:05:55.306Z,98226
2018-01-05T03:06:54.302Z,98225
2018-01-05T03:07:54.488Z,98216
2018-01-05T03:08:54.544Z,98225
2018-01-05T03:09:55.451Z,98231
2018-01-05T03:10:54.545Z,98234
2018-01-05T03:11:54.756Z,98231
2018-01-05T03:12:54.672Z,98232
2018-01-05T03:13:54.826Z,98220
2018-01-05T03:14:55.915Z,98230
2018-01-05T03:15:55.911Z,98228
2018-01-05T03:16:56.031Z,98234
2018-01-05T03:17:55.901Z,98237
2018-01-05T03:18:56.119Z,98220
2018-01-05T03:19:56.191Z,98233
2018-01-05T03:20:56.227Z,98236
2018-01-05T03:21:56.336Z,98233
2018-01-05T03:22:55.250Z,98241
2018-01-05T03:23:56.368Z,98240
2018-01-05T03:24:56.407Z,98235
2018-01-05T03:25:55.414Z,98238
2018-01-05T03:26:56.524Z,98233
2018-01-05T03:27:55.426Z,98238
2018-01-05T03:28:55.571Z,98239
2018-01-05T03:29:55.536Z,98241
2018-01-05T03:30:56.638Z,98239
2018-01-05T03:31:55.613Z,98238
2018-01-05T03:32:55.723Z,98242
2018-01-05T03:33:55.742Z,98251
2018-01-05T03:34:56.735Z,98251
2018-01-05T03:35:55.932Z,98244
2018-01-05T03:36:56.014Z,98232
2018-01-05T03:37:56.940Z,98226
2018-01-05T03:38:56.142Z,98226
2018-01-05T03:39:56.976Z,98220
2018-01-05T03:40:56.196Z,98208
2018-01-05T03:41:57.195Z,98212
2018-01-05T03:42:57.211Z,98216
2018-01-05T03:43:56.224Z,98221
2018-01-05T03:44:56.433Z,98219
2018-01-05T03:45:56.473Z,98213
2018-01-05T03:46:56.510Z,98221
2018-01-05T03:47:57.555Z,98221
2018-01-05T03:48:56.522Z,98216
2018-01-05T03:49:56.601Z,98219
2018-01-05T03:50:56.732Z,98216
2018-01-05T03:51:57.760Z,98209
2018-01-05T03:52:57.705Z,98212
2018-01-05T03:53:56.767Z,98215
2018-01-05T03:54:56.769Z,98215
2018-01-05T03:55:57.888Z,98222
2018-01-05T03:56:57.000Z,98218
2018-01-05T03:57:57.065Z,98224
2018-01-05T03:58:56.960Z,98229
2018-01-05T03:59:57.946Z,98231
2018-01-05T04:00:56.989Z,98239
2018-01-05T04:01:57.143Z,98241
2018-01-05T04:02:57.161Z,98236
2018-01-05T04:03:57.102Z,98224
2018-01-05T04:04:58.216Z,98233
2018-01-05T04:05:58.129Z,98233
2018-01-05T04:06:57.185Z,98228
2018-01-05T04:07:57.291Z,98232
2018-01-05T04:08:57.227Z,98231
2018-01-05T04:09:57.308Z,98214
2018-01-05T04:10:58.344Z,98216
2018-01-05T04:11:57.539Z,98217
2018-01-05T04:12:58.579Z,98222
2018-01-05T04:13:57.504Z,98215
2018-01-05T04:14:58.524Z,98210
2018-01-05T04:15:57.574Z,98202
2018-01-05T04:16:57.572Z,98197
2018-01-05T04:17:58.683Z,98204
2018-01-05T04:18:57.594Z,98203
2018-01-05T04:19:58.719Z,98199
2018-01-05T04:20:57.715Z,98192
2018-01-05T04:21:57.830Z,98191
2018-01-05T04:22:57.801Z,98207
2018-01-05T04:23:57.900Z,98199
2018-01-05T04:24:57.932Z,98197
2018-01-05T04:25:58.100Z,98195
2018-01-05T04:26:59.027Z,98191
2018-01-05T04:27:58.092Z,98194
2018-01-05T04:28:58.128Z,98196
2018-01-05T04:29:58.137Z,98188
2018-01-05T04:30:58.190Z,98190
2018-01-05T04:31:58.302Z,98183
2018-01-05T04:32:58.292Z,98183
2018-01-05T04:33:59.420Z,98183
2018-01-05T04:34:58.387Z,98173
2018-01-05T04:35:59.404Z,98181
2018-01-05T04:36:58.508Z,98172
2018-01-05T04:37:59.620Z,98173
2018-01-05T04:38:59.661Z,98170
2018-01-05T04:39:59.725Z,98178
2018-01-05T04:40:58.713Z,98174
2018-01-05T04:41:58.792Z,98174
2018-01-05T04:42:58.884Z,98173
2018-01-05T04:43:58.915Z,98169
2018-01-05T04:44:58.959Z,98173
2018-01-05T04:45:58.999Z,98170
2018-01-05T04:46:59.038Z,98170
2018-01-05T04:48:00.139Z,98175
2018-01-05T04:48:59.193Z,98177
2018-01-05T04:49:59.222Z,98177
2018-01-05T04:50:59.294Z,98170
2018-01-05T04:52:00.328Z,98177
2018-01-05T04:53:00.335Z,98163
2018-01-05T04:53:59.310Z,98160
2018-01-05T04:55:00.422Z,98160
2018-01-05T04:55:59.378Z,98167
2018-01-05T04:56:59.430Z,98167
2018-01-05T04:57:59.555Z,98169
2018-01-05T04:58:59.469Z,98163
2018-01-05T05:00:00.597Z,98164
2018-01-05T05:00:59.580Z,98163
2018-01-05T05:01:59.569Z,98161
2018-01-05T05:03:00.581Z,98157
2018-01-05T05:03:59.701Z,98155
2018-01-05T05:04:59.737Z,98164
2018-01-05T05:06:00.745Z,98148
2018-01-05T05:06:59.789Z,98156
2018-01-05T05:07:59.911Z,98155
2018-01-05T05:09:00.857Z,98163
2018-01-05T05:10:00.921Z,98160
2018-01-05T05:11:00.097Z,98157
2018-01-05T05:12:00.009Z,98150
2018-01-05T05:13:00.195Z,98155
2018-01-05T05:14:00.299Z,98159
2018-01-05T05:15:00.193Z,98163
2018-01-05T05:16:01.198Z,98159
2018-01-05T05:17:00.207Z,98143
2018-01-05T05:18:00.259Z,98144
2018-01-05T05:19:00.270Z,98136
2018-01-05T05:20:00.349Z,98148
2018-01-05T05:21:00.420Z,98147
2018-01-05T05:22:00.429Z,98160
2018-01-05T05:23:01.471Z,98140
2018-01-05T05:24:01.650Z,98149
2018-01-05T05:25:00.736Z,98155
2018-01-05T05:26:00.713Z,98166
2018-01-05T05:27:01.774Z,98156
2018-01-05T05:28:00.890Z,98138
2018-01-05T05:29:01.003Z,98134
2018-01-05T05:30:00.989Z,98146
2018-01-05T05:31:01.030Z,98157
2018-01-05T05:32:01.105Z,98177
2018-01-05T05:33:01.116Z,98163
2018-01-05T05:34:02.172Z,98167
2018-01-05T05:35:01.403Z,98160
2018-01-05T05:36:01.376Z,98167
2018-01-05T05:37:01.406Z,98164
2018-01-05T05:38:01.576Z,98168
2018-01-05T05:39:01.555Z,98172
2018-01-05T05:40:01.610Z,98174
2018-01-05T05:41:01.657Z,98179
2018-01-05T05:42:02.763Z,98175
2018-01-05T05:43:02.788Z,98155
2018-01-05T05:44:01.958Z,98154
2018-01-05T05:45:02.803Z,98162
2018-01-05T05:46:01.847Z,98155
2018-01-05T05:47:02.226Z,98159
2018-01-05T05:48:01.950Z,98172
2018-01-05T05:49:02.017Z,98163
2018-01-05T05:50:03.098Z,98153
2018-01-05T05:51:03.034Z,98167
2018-01-05T05:52:02.158Z,98177
2018-01-05T05:53:02.160Z,98161
2018-01-05T05:54:03.194Z,98170
2018-01-05T05:55:03.389Z,98171
2018-01-05T05:56:02.478Z,98150
2018-01-05T05:57:02.418Z,98174
2018-01-05T05:58:02.628Z,98182
2018-01-05T05:59:03.670Z,98182
2018-01-05T06:00:02.688Z,98185
2018-01-05T06:01:03.580Z,98182
2018-01-05T06:02:02.731Z,98178
2018-01-05T06:03:02.769Z,98186
2018-01-05T06:04:02.794Z,98179
2018-01-05T06:05:03.881Z,98188
2018-01-05T06:06:03.858Z,98178
2018-01-05T06:07:02.848Z,98182
2018-01-05T06:08:03.937Z,98181
2018-01-05T06:09:02.925Z,98180
2018-01-05T06:10:02.924Z,98191
2018-01-05T06:11:03.071Z,98183
2018-01-05T06:12:04.091Z,98191
2018-01-05T06:13:03.097Z,98197
2018-01-05T06:14:03.109Z,98179
2018-01-05T06:15:03.171Z,98200
2018-01-05T06:16:03.236Z,98198
2018-01-05T06:17:04.385Z,98200
2018-01-05T06:18:03.376Z,98199
2018-01-05T06:19:03.413Z,98194
2018-01-05T06:20:04.387Z,98187
2018-01-05T06:21:04.499Z,98205
2018-01-05T06:22:04.387Z,98222
2018-01-05T06:23:03.503Z,98208
2018-01-05T06:24:04.530Z,98208
2018-01-05T06:25:03.760Z,98210
2018-01-05T06:26:04.767Z,98214
2018-01-05T06:27:03.738Z,98215
2018-01-05T06:28:03.830Z,98219
2018-01-05T06:29:03.847Z,98229
2018-01-05T06:30:03.972Z,98231
2018-01-05T06:31:05.046Z,98217
2018-01-05T06:32:04.011Z,98221
2018-01-05T06:33:04.068Z,98226
2018-01-05T06:34:04.060Z,98228
2018-01-05T06:35:04.193Z,98222
2018-01-05T06:36:04.126Z,98220
2018-01-05T06:37:04.173Z,98223
2018-01-05T06:38:05.334Z,98224
2018-01-05T06:39:04.430Z,98217
2018-01-05T06:40:04.398Z,98220
2018-01-05T06:41:05.397Z,98224
2018-01-05T06:42:05.460Z,98217
2018-01-05T06:43:04.504Z,98218
2018-01-05T06:44:04.545Z,98211
2018-01-05T06:45:05.709Z,98221
2018-01-05T06:46:05.798Z,98209
2018-01-05T06:47:04.874Z,98228
2018-01-05T06:48:04.784Z,98225
2018-01-05T06:49:04.791Z,98228
2018-01-05T06:50:05.880Z,98227
2018-01-05T06:51:04.859Z,98205
2018-01-05T06:52:06.016Z,98223
2018-01-05T06:53:05.118Z,98222
2018-01-05T06:54:06.141Z,98224
2018-01-05T06:55:05.144Z,98224
2018-01-05T06:56:06.294Z,98233
2018-01-05T06:57:05.449Z,98230
2018-01-05T06:58:05.387Z,98237
2018-01-05T06:59:06.467Z,98235
2018-01-05T07:00:06.512Z,98233
2018-01-05T07:01:05.416Z,98237
2018-01-05T07:02:05.481Z,98240
2018-01-05T07:03:05.578Z,98239
2018-01-05T07:04:05.653Z,98243
2018-01-05T07:05:05.582Z,98235
2018-01-05T07:06:06.563Z,98238
2018-01-05T07:07:06.600Z,98248
2018-01-05T07:08:05.664Z,98245
2018-01-05T07:09:05.695Z,98240
2018-01-05T07:10:05.706Z,98240
2018-01-05T07:11:05.785Z,98247
2018-01-05T07:12:05.768Z,98257
2018-01-05T07:13:05.838Z,98260
2018-01-05T07:14:05.850Z,98255
2018-01-05T07:15:05.959Z,98251
2018-01-05T07:16:06.001Z,98256
2018-01-05T07:17:06.830Z,98251
2018-01-05T07:18:07.264Z,98264
2018-01-05T07:19:07.322Z,98250
2018-01-05T07:20:07.277Z,98251
2018-01-05T07:21:06.328Z,98248
2018-01-05T07:22:06.386Z,98277
2018-01-05T07:23:07.521Z,98257
2018-01-05T07:24:07.609Z,98251
2018-01-05T07:25:06.633Z,98260
2018-01-05T07:26:07.756Z,98256
2018-01-05T07:27:06.688Z,98244
2018-01-05T07:28:06.792Z,98251
2018-01-05T07:29:07.893Z,98257
2018-01-05T07:30:07.938Z,98250
2018-01-05T07:31:07.974Z,98261
2018-01-05T07:32:07.044Z,98275
2018-01-05T07:33:06.980Z,98272
2018-01-05T07:34:08.160Z,98269
2018-01-05T07:35:07.162Z,98267
2018-01-05T07:36:08.169Z,98269
2018-01-05T07:37:08.329Z,98255
2018-01-05T07:38:07.298Z,98265
2018-01-05T07:39:07.381Z,98278
2018-01-05T07:40:08.491Z,98276
2018-01-05T07:41:07.511Z,98270
2018-01-05T07:42:07.508Z,98281
2018-01-05T07:43:07.743Z,98283
2018-01-05T07:44:07.655Z,98281
2018-01-05T07:45:07.665Z,98275
2018-01-05T07:46:08.811Z,98285
2018-01-05T07:47:07.900Z,98292
2018-01-05T07:48:07.825Z,98286
2018-01-05T07:49:07.899Z,98300
2018-01-05T07:50:07.896Z,98302
2018-01-05T07:51:08.059Z,98306
2018-01-05T07:52:08.059Z,98310
2018-01-05T07:53:09.109Z,98308
2018-01-05T07:54:08.087Z,98320
2018-01-05T07:55:08.127Z,98313
2018-01-05T07:56:08.126Z,98320
2018-01-05T07:57:08.265Z,98317
2018-01-05T07:58:08.209Z,98310
2018-01-05T07:59:09.290Z,98317
2018-01-05T08:00:09.376Z,98325
2018-01-05T08:01:08.503Z,98329
2018-01-05T08:02:09.480Z,98328
2018-01-05T08:03:08.539Z,98332
2018-01-05T08:04:08.537Z,98335
2018-01-05T08:05:08.544Z,98336
2018-01-05T08:06:09.718Z,98336
2018-01-05T08:07:08.717Z,98337
2018-01-05T08:08:09.732Z,98340
2018-01-05T08:09:08.751Z,98333
2018-01-05T08:10:08.786Z,98343
2018-01-05T08:11:08.804Z,98341
2018-01-05T08:12:08.936Z,98351
2018-01-05T08:13:09.994Z,98357
2018-01-05T08:14:08.927Z,98358
2018-01-05T08:15:10.116Z,98355
2018-01-05T08:16:09.113Z,98346
2018-01-05T08:17:09.300Z,98351
2018-01-05T08:18:09.169Z,98363
2018-01-05T08:19:09.278Z,98357
2018-01-05T08:20:10.337Z,98355
2018-01-05T08:21:10.356Z,98358
2018-01-05T08:22:10.364Z,98361
2018-01-05T08:23:09.418Z,98359
2018-01-05T08:24:09.435Z,98369
2018-01-05T08:25:10.570Z,98359
2018-01-05T08:26:10.507Z,98372
2018-01-05T08:27:10.652Z,98348
2018-01-05T08:28:09.565Z,98358
2018-01-05T08:29:09.850Z,98363
2018-01-05T08:30:09.680Z,98360
2018-01-05T08:31:10.747Z,98358
2018-01-05T08:32:10.762Z,98358
2018-01-05T08:33:10.863Z,98365
2018-01-05T08:34:10.962Z,98370
2018-01-05T08:35:11.021Z,98367
2018-01-05T08:36:10.050Z,98370
2018-01-05T08:37:10.062Z,98370
2018-01-05T08:38:10.094Z,98371
2018-01-05T08:39:11.194Z,98373
2018-01-05T08:40:10.104Z,98372
2018-01-05T08:41:11.136Z,98382
2018-01-05T08:42:10.195Z,98387
2018-01-05T08:43:10.388Z,98385
2018-01-05T08:44:10.414Z,98385
2018-01-05T08:45:11.413Z,98392
2018-01-05T08:46:10.339Z,98408
2018-01-05T08:47:10.365Z,98400
2018-01-05T08:48:11.484Z,98404
2018-01-05T08:49:11.534Z,98383
2018-01-05T08:50:11.500Z,98391
2018-01-05T08:51:10.588Z,98397
2018-01-05T08:52:10.682Z,98389
2018-01-05T08:53:11.843Z,98388
2018-01-05T08:54:10.761Z,98389
2018-01-05T08:55:10.908Z,98384
2018-01-05T08:56:10.940Z,98389
2018-01-05T08:57:11.030Z,98400
2018-01-05T08:58:11.115Z,98404
2018-01-05T08:59:11.035Z,98409
2018-01-05T09:00:12.189Z,98406
2018-01-05T09:01:12.213Z,98407
2018-01-05T09:02:12.254Z,98404
2018-01-05T09:03:11.427Z,98391
2018-01-05T09:04:11.264Z,98400
2018-01-05T09:05:11.384Z,98402
2018-01-05T09:06:12.399Z,98401
2018-01-05T09:07:12.320Z,98406
2018-01-05T09:08:11.425Z,98399
2018-01-05T09:09:11.590Z,98400
2018-01-05T09:10:12.677Z,98397
2018-01-05T09:11:11.579Z,98392
2018-01-05T09:12:12.581Z,98405
2018-01-05T09:13:12.740Z,98413
2018-01-05T09:14:12.796Z,98403
2018-01-05T09:15:11.829Z,98409
2018-01-05T09:16:12.073Z,98406
2018-01-05T09:17:11.928Z,98407
2018-01-05T09:18:12.042Z,98407
2018-01-05T09:19:12.007Z,98419
2018-01-05T09:20:12.173Z,98413
2018-01-05T09:21:13.048Z,98426
2018-01-05T09:22:12.319Z,98425
2018-01-05T09:23:13.226Z,98418
2018-01-05T09:24:12.163Z,98418
2018-01-05T09:25:13.328Z,98428
2018-01-05T09:26:13.292Z,98428
2018-01-05T09:27:12.358Z,98449
2018-01-05T09:28:13.355Z,98432
2018-01-05T09:29:12.483Z,98423
2018-01-05T09:30:12.492Z,98429
2018-01-05T09:31:13.646Z,98429
2018-01-05T09:32:12.773Z,98409
2018-01-05T09:33:12.763Z,98427
2018-01-05T09:34:12.728Z,98424
2018-01-05T09:35:13.709Z,98423
2018-01-05T09:36:12.814Z,98424
2018-01-05T09:37:13.966Z,98420
2018-01-05T09:38:14.035Z,98422
2018-01-05T09:39:12.964Z,98425
2018-01-05T09:40:13.986Z,98436
2018-01-05T09:41:14.096Z,98434
2018-01-05T09:42:14.059Z,98432
2018-01-05T09:43:13.288Z,98439
2018-01-05T09:44:14.306Z,98437
2018-01-05T09:45:14.272Z,98432
2018-01-05T09:46:13.306Z,98420
2018-01-05T09:47:13.368Z,98420
2018-01-05T09:48:13.353Z,98431
2018-01-05T09:49:13.412Z,98438
2018-01-05T09:50:13.472Z,98420
2018-01-05T09:51:13.571Z,98421
2018-01-05T09:52:13.647Z,98421
2018-01-05T09:53:13.641Z,98424
2018-01-05T09:54:13.740Z,98421
2018-01-05T09:59:08.845Z,98419
2018-01-05T10:00:08.878Z,98421
2018-01-05T10:01:08.886Z,98426
2018-01-05T10:02:09.824Z,98432
2018-01-05T10:03:08.929Z,98427
2018-01-05T10:04:08.961Z,98428
2018-01-05T10:05:09.143Z,98422
2018-01-05T10:06:09.182Z,98436
2018-01-05T10:07:09.119Z,98430
2018-01-05T10:08:09.164Z,98432
2018-01-05T10:09:09.336Z,98432
2018-01-05T10:10:10.353Z,98430
2018-01-05T10:11:10.268Z,98436
2018-01-05T10:12:09.339Z,98436
2018-01-05T10:13:09.516Z,98433
2018-01-05T10:14:10.543Z,98429
2018-01-05T10:15:10.483Z,98434
2018-01-05T10:16:09.638Z,98434
2018-01-05T10:17:10.615Z,98432
2018-01-05T10:18:10.712Z,98440
2018-01-05T10:19:09.660Z,98441
2018-01-05T10:20:09.713Z,98441
2018-01-05T10:21:09.797Z,98439
2018-01-05T10:22:10.950Z,98446
2018-01-05T10:23:09.878Z,98459
2018-01-05T10:24:10.041Z,98440
2018-01-05T10:25:11.043Z,98454
2018-01-05T10:26:11.243Z,98449
2018-01-05T10:27:10.153Z,98454
2018-01-05T10:28:10.219Z,98452
2018-01-05T10:29:10.193Z,98459
2018-01-05T10:30:10.285Z,98453
2018-01-05T10:31:11.444Z,98457
2018-01-05T10:32:11.454Z,98458
2018-01-05T10:33:10.520Z,98454
2018-01-05T10:34:10.533Z,98461
2018-01-05T10:35:10.472Z,98458
2018-01-05T10:36:10.659Z,98457
2018-01-05T10:37:11.707Z,98463
2018-01-05T10:38:11.691Z,98462
2018-01-05T10:39:10.791Z,98460
2018-01-05T10:40:10.844Z,98463
2018-01-05T10:41:10.990Z,98465
2018-01-05T10:42:11.950Z,98463
2018-01-05T10:43:12.038Z,98452
2018-01-05T10:44:12.275Z,98461
2018-01-05T10:45:11.944Z,98457
2018-01-05T10:46:12.148Z,98458
2018-01-05T10:47:12.217Z,98452
2018-01-05T10:48:12.132Z,98459
2018-01-05T10:49:12.333Z,98450
2018-01-05T10:50:12.459Z,98453
2018-01-05T10:51:11.553Z,98459
2018-01-05T10:52:12.515Z,98453
2018-01-05T10:53:12.472Z,98453
2018-01-05T10:54:11.631Z,98451
2018-01-05T10:55:11.825Z,98454
2018-01-05T10:56:11.666Z,98462
2018-01-05T10:57:12.763Z,98461
2018-01-05T10:58:12.870Z,98457
2018-01-05T10:59:11.832Z,98458
2018-01-05T11:00:12.813Z,98463
2018-01-05T11:01:13.001Z,98456
2018-01-05T11:02:11.939Z,98454
2018-01-05T11:03:12.988Z,98452
2018-01-05T11:04:12.088Z,98460
2018-01-05T11:05:13.245Z,98456
2018-01-05T11:06:12.187Z,98454
2018-01-05T11:07:12.347Z,98458
2018-01-05T11:08:13.315Z,98459
2018-01-05T11:09:12.368Z,98459
2018-01-05T11:10:12.379Z,98466
2018-01-05T11:11:12.487Z,98473
2018-01-05T11:12:12.552Z,98468
2018-01-05T11:13:13.649Z,98462
2018-01-05T11:14:12.724Z,98464
2018-01-05T11:15:12.662Z,98464
2018-01-05T11:16:13.690Z,98472
2018-01-05T11:17:13.817Z,98476
2018-01-05T11:18:12.742Z,98492
2018-01-05T11:19:12.890Z,98476
2018-01-05T11:20:14.005Z,98477
2018-01-05T11:21:13.064Z,98482
2018-01-05T11:22:14.060Z,98475
2018-01-05T11:23:12.985Z,98480
2018-01-05T11:24:14.035Z,98475
2018-01-05T11:25:14.079Z,98488
2018-01-05T11:26:13.225Z,98478
2018-01-05T11:27:14.275Z,98478
2018-01-05T11:28:14.338Z,98478
2018-01-05T11:29:13.452Z,98474
2018-01-05T11:30:13.511Z,98474
2018-01-05T11:31:14.570Z,98486
2018-01-05T11:32:16.604Z,98481
2018-01-05T11:33:15.544Z,98486
2018-01-05T11:34:13.712Z,98489
2018-01-05T11:35:14.711Z,98493
2018-01-05T11:36:13.895Z,98493
2018-01-05T11:37:13.969Z,98499
2018-01-05T11:38:14.864Z,98488
2018-01-05T11:39:14.013Z,98491
2018-01-05T11:40:15.122Z,98490
2018-01-05T11:41:14.141Z,98490
2018-01-05T11:42:14.121Z,98497
2018-01-05T11:43:14.187Z,98501
2018-01-05T11:44:15.343Z,98496
2018-01-05T11:45:14.339Z,98490
2018-01-05T11:46:14.290Z,98497
2018-01-05T11:47:15.372Z,98496
2018-01-05T11:48:14.298Z,98504
2018-01-05T11:49:15.470Z,98500
2018-01-05T11:50:15.469Z,98498
2018-01-05T11:51:14.472Z,98491
2018-01-05T11:52:15.540Z,98487
2018-01-05T11:53:15.685Z,98488
2018-01-05T11:54:15.694Z,98492
2018-01-05T11:55:15.662Z,98485
2018-01-05T11:56:15.926Z,98480
2018-01-05T11:57:14.796Z,98480
2018-01-05T11:58:14.959Z,98475
2018-01-05T11:59:15.965Z,98478
2018-01-05T12:00:16.023Z,98472
2018-01-05T12:01:16.076Z,98468
2018-01-05T12:02:15.023Z,98470
2018-01-05T12:03:15.061Z,98469
2018-01-05T12:04:16.139Z,98463
2018-01-05T12:05:15.225Z,98472
2018-01-05T12:06:16.324Z,98468
2018-01-05T12:07:15.282Z,98460
2018-01-05T12:08:15.278Z,98471
2018-01-05T12:09:16.430Z,98465
2018-01-05T12:10:15.550Z,98471
2018-01-05T12:11:15.497Z,98468
2018-01-05T12:12:15.681Z,98477
2018-01-05T12:13:15.702Z,98476
2018-01-05T12:14:15.937Z,98477
2018-01-05T12:15:16.843Z,98473
2018-01-05T12:16:16.870Z,98480
2018-01-05T12:17:15.962Z,98477
2018-01-05T12:18:16.003Z,98480
2018-01-05T12:19:15.899Z,98482
2018-01-05T12:20:15.997Z,98486
2018-01-05T12:21:16.016Z,98485
2018-01-05T12:22:17.284Z,98478
2018-01-05T12:23:16.295Z,98473
2018-01-05T12:24:16.340Z,98480
2018-01-05T12:25:17.306Z,98473
2018-01-05T12:26:16.232Z,98476
2018-01-05T12:27:17.196Z,98470
2018-01-05T12:28:16.446Z,98467
2018-01-05T12:29:17.495Z,98468
2018-01-05T12:30:16.555Z,98471
2018-01-05T12:31:17.744Z,98475
2018-01-05T12:32:16.670Z,98470
2018-01-05T12:33:16.804Z,98472
2018-01-05T12:34:17.792Z,98468
2018-01-05T12:35:17.756Z,98469
2018-01-05T12:36:17.892Z,98468
2018-01-05T12:37:16.879Z,98469
2018-01-05T12:38:16.859Z,98472
2018-01-05T12:39:16.908Z,98468
2018-01-05T12:40:17.063Z,98462
2018-01-05T12:41:18.072Z,98457
2018-01-05T12:42:17.169Z,98459
2018-01-05T12:43:17.878Z,98457
2018-01-05T12:44:17.512Z,98455
2018-01-05T12:45:17.566Z,98454
2018-01-05T12:46:17.702Z,98451
2018-01-05T12:47:17.763Z,98451
2018-01-05T12:48:19.109Z,98455
2018-01-05T12:49:18.831Z,98460
2018-01-05T12:50:17.764Z,98456
2018-01-05T12:51:18.128Z,98457
2018-01-05T12:52:19.153Z,98462
2018-01-05T12:53:19.087Z,98464
2018-01-05T12:54:18.162Z,98458
2018-01-05T12:55:18.082Z,98470
2018-01-05T12:56:19.303Z,98464
2018-01-05T12:57:18.300Z,98464